ADDS METAR Data INFO
IDs: Format: Raw Decoded Include TAF

Data at: 0144 UTC 26 Feb 2018

KNUQ 260056Z 35010KT 10SM CLR 14/03 A3024 RMK AO2 SLP242 T01390028
KNUQ 252356Z 35011KT 10SM CLR 14/06 A3025 RMK AO2 SLP244 T01440056 10161 20100 56020
KNUQ 252256Z 35012KT 10SM CLR 14/02 A3026 RMK AO2 SLP251 T01440022
KNUQ 252156Z 02010KT 10SM CLR 16/M01 A3028 RMK AO2 SLP256 T01611006
KNUQ 252056Z VRB03KT 10SM CLR 14/02 A3031 RMK AO2 SLP265 T01440017 58021
KNUQ 251956Z 01005KT 10SM CLR 13/02 A3034 RMK AO2 SLP276 T01330022
KNUQ 251856Z VRB05KT 10SM CLR 12/05 A3037 RMK AO2 SLP285 T01170050
KNUQ 251756Z 00000KT 10SM CLR 10/04 A3037 RMK AO2 SLP286 T01000044 10100 20033 50005
KNUQ 251656Z 00000KT 10SM CLR 08/04 A3038 RMK AO2 SLP288 T00830039
KNUQ 251556Z 00000KT 10SM CLR 06/04 A3037 RMK AO2 SLP285 T00560039
KNUQ 251456Z 00000KT 10SM CLR 04/02 A3035 RMK AO2 SLP281 T00390022 51006
KNUQ 251356Z 00000KT 10SM CLR 04/03 A3035 RMK AO2 SLP280 T00440028
KNUQ 251256Z 00000KT 10SM CLR 04/03 A3034 RMK AO2 SLP276 T00440028
KNUQ 251156Z 00000KT 10SM CLR 06/03 A3033 RMK AO2 SLP274 T00560028 10089 20050 55002
KNUQ 251056Z 27003KT 10SM CLR 06/03 A3033 RMK AO2 SLP274 T00560033
KNUQ 250956Z 26003KT 10SM CLR 07/04 A3033 RMK AO2 SLP273 T00670039
KNUQ 250856Z 00000KT 10SM CLR 07/03 A3034 RMK AO2 SLP276 T00670033 56002
KNUQ 250843Z 00000KT 10SM SCT024 07/04 A3034 RMK AO2 T00670039
KNUQ 250756Z 26003KT 10SM BKN026 08/04 A3034 RMK AO2 SLP276 T00780039 401390000
KNUQ 250656Z 26004KT 10SM CLR 08/04 A3034 RMK AO2 SLP276 T00830044
KNUQ 250556Z 00000KT 10SM CLR 09/05 A3035 RMK AO2 SLP278 T00890050 10128 20089 51006
KNUQ 250456Z 29005KT 10SM CLR 09/05 A3034 RMK AO2 SLP275 T00940050
KNUQ 250356Z 30007KT 270V330 10SM CLR 10/05 A3034 RMK AO2 SLP275 T01000050
KNUQ 250256Z 31010KT 10SM CLR 10/04 A3033 RMK AO2 SLP271 T01000044 55004
KNUQ 250156Z 29009G17KT 10SM CLR 11/04 A3031 RMK AO2 SLP267 T01060039
KNUQ 250056Z 28014G21KT 10SM CLR 12/03 A3031 RMK AO2 SLP265 T01220028
KNUQ 242356Z 29010G19KT 10SM SCT050 12/04 A3034 RMK AO2 SLP275 T01220044 10139 20100 56018
KNUQ 242256Z 30011G18KT 10SM SCT040 BKN050 13/04 A3035 RMK AO2 SLP280 T01280044
KNUQ 242156Z 32007KT 10SM BKN044 BKN050 13/03 A3037 RMK AO2 SLP287 T01280028
KNUQ 242056Z 35008KT 10SM CLR 13/M01 A3039 RMK AO2 SLP294 T01331006 58017
KNUQ 241956Z 34009KT 10SM CLR 12/01 A3043 RMK AO2 SLP306 T01220011
KNUQ 241856Z 34006KT 10SM CLR 13/02 A3043 RMK AO2 SLP306 T01280017
KNUQ 241756Z VRB03KT 10SM CLR 10/00 A3044 RMK AO2 SLP311 T01000000 10100 20000 50009
KNUQ 241656Z 14004KT 10SM CLR 07/M02 A3045 RMK AO2 SLP312 T00721022
KNUQ 241556Z 15005KT 10SM CLR 04/M03 A3043 RMK AO2 SLP306 T00391028
KNUQ 241456Z 18003KT 10SM CLR 02/M03 A3042 RMK AO2 SLP302 T00221033 51003
KNUQ 241356Z 13008KT 10SM CLR 00/M04 A3042 RMK AO2 SLP302 T00001044